RYR23F EVRA-LUKK
Flight info
| Callsign | RYR23F |
|---|---|
| Flight time | N/A |
| Altitude | 32000 |
| Route | ERIVA DCT BOKSU M985 SUWGI M857 OBOSO/N0461F330 DCT ROMKA DCT BIBOR DCT UNIRA |
| Aircraft | B738/M-SDE2E3FGHIRWXY/LB1 |
Departure
| Time | N/A |
|---|---|
| Airport | Riga International Airport (EVRA) |
Arrival
| Time | 2026-05-04 23:04 |
|---|---|
| Airport | Chişinău International Airport (LUKK) |
| Time | Latitude | Longitude | Altitude | Speed | Heading |
|---|---|---|---|---|---|
| 2026-05-04 21:22 | 55.72556 | 24.12017 | 23820 ft | 507 kts | 205° |
| 2026-05-04 21:23 | 55.69315 | 24.09497 | 24083 ft | 510 kts | 205° |
| 2026-05-04 21:23 | 55.66056 | 24.06968 | 24361 ft | 512 kts | 205° |
| 2026-05-04 21:23 | 55.62784 | 24.04434 | 24650 ft | 514 kts | 205° |
| 2026-05-04 21:23 | 55.59514 | 24.01905 | 24906 ft | 516 kts | 205° |
| 2026-05-04 21:24 | 55.56208 | 23.99354 | 25142 ft | 519 kts | 205° |
| 2026-05-04 21:24 | 55.52884 | 23.96794 | 25380 ft | 521 kts | 205° |
| 2026-05-04 21:24 | 55.49552 | 23.94232 | 25647 ft | 523 kts | 205° |
| 2026-05-04 21:24 | 55.46215 | 23.91671 | 25896 ft | 525 kts | 205° |
| 2026-05-04 21:25 | 55.42854 | 23.89097 | 26117 ft | 527 kts | 205° |
| 2026-05-04 21:25 | 55.39486 | 23.86521 | 26384 ft | 528 kts | 205° |
| 2026-05-04 21:25 | 55.36162 | 23.83985 | 26719 ft | 527 kts | 205° |
| 2026-05-04 21:25 | 55.32807 | 23.81429 | 27095 ft | 525 kts | 205° |
| 2026-05-04 21:26 | 55.29459 | 23.78883 | 27428 ft | 525 kts | 204° |
| 2026-05-04 21:26 | 55.26100 | 23.76334 | 27708 ft | 526 kts | 204° |
| 2026-05-04 21:26 | 55.22741 | 23.73790 | 27968 ft | 527 kts | 204° |
| 2026-05-04 21:26 | 55.19383 | 23.71250 | 28312 ft | 526 kts | 204° |
| 2026-05-04 21:27 | 55.16020 | 23.68712 | 28629 ft | 525 kts | 204° |
| 2026-05-04 21:27 | 55.12663 | 23.66182 | 28913 ft | 526 kts | 204° |
| 2026-05-04 21:27 | 55.09308 | 23.63659 | 29195 ft | 526 kts | 204° |
| 2026-05-04 21:27 | 55.05945 | 23.61135 | 29542 ft | 525 kts | 203° |
| 2026-05-04 21:28 | 55.02588 | 23.58620 | 29821 ft | 525 kts | 203° |
| 2026-05-04 21:28 | 54.99230 | 23.56109 | 30063 ft | 526 kts | 203° |
| 2026-05-04 21:28 | 54.95864 | 23.53596 | 30316 ft | 526 kts | 203° |
| 2026-05-04 21:28 | 54.92498 | 23.51088 | 30589 ft | 526 kts | 202° |
| 2026-05-04 21:29 | 54.89143 | 23.48593 | 30917 ft | 524 kts | 202° |
| 2026-05-04 21:29 | 54.85797 | 23.46109 | 31231 ft | 523 kts | 202° |
| 2026-05-04 21:29 | 54.82453 | 23.43631 | 31540 ft | 522 kts | 202° |
| 2026-05-04 21:29 | 54.79112 | 23.41158 | 31797 ft | 522 kts | 202° |
| 2026-05-04 21:30 | 54.75776 | 23.38695 | 31919 ft | 524 kts | 202° |
| 2026-05-04 21:30 | 54.72407 | 23.36212 | 31911 ft | 526 kts | 202° |
| 2026-05-04 21:30 | 54.65703 | 23.31281 | 31910 ft | 522 kts | 201° |
| 2026-05-04 21:31 | 54.55696 | 23.23956 | 31927 ft | 519 kts | 201° |
| 2026-05-04 21:32 | 54.49057 | 23.19118 | 31943 ft | 518 kts | 201° |
| 2026-05-04 21:32 | 54.42417 | 23.14297 | 31945 ft | 518 kts | 201° |
| 2026-05-04 21:33 | 54.35762 | 23.09482 | 31951 ft | 519 kts | 201° |
| 2026-05-04 21:33 | 54.29091 | 23.04697 | 31954 ft | 519 kts | 200° |
| 2026-05-04 21:34 | 54.22404 | 23.00216 | 31960 ft | 519 kts | 199° |
| 2026-05-04 21:34 | 54.15668 | 22.95772 | 31974 ft | 519 kts | 199° |
| 2026-05-04 21:35 | 54.08931 | 22.91289 | 31978 ft | 520 kts | 199° |
| 2026-05-04 21:35 | 54.02026 | 22.87808 | 32004 ft | 516 kts | 188° |
| 2026-05-04 21:36 | 53.94986 | 22.85338 | 32005 ft | 517 kts | 188° |
| 2026-05-04 21:36 | 53.87952 | 22.82784 | 31991 ft | 516 kts | 188° |
| 2026-05-04 21:37 | 53.80952 | 22.80129 | 31986 ft | 515 kts | 189° |
| 2026-05-04 21:37 | 53.73958 | 22.77491 | 32005 ft | 514 kts | 188° |
| 2026-05-04 21:38 | 53.66990 | 22.74888 | 32000 ft | 513 kts | 188° |
| 2026-05-04 21:38 | 53.60030 | 22.72291 | 32008 ft | 512 kts | 188° |
| 2026-05-04 21:39 | 53.53095 | 22.69711 | 32010 ft | 511 kts | 188° |
| 2026-05-04 21:39 | 53.47332 | 22.67573 | 32010 ft | 511 kts | 188° |
| 2026-05-04 21:40 | 53.40387 | 22.65006 | 32008 ft | 510 kts | 188° |
| 2026-05-04 21:40 | 53.33456 | 22.62450 | 32013 ft | 510 kts | 188° |
| 2026-05-04 21:41 | 53.26526 | 22.59905 | 32012 ft | 509 kts | 188° |
| 2026-05-04 21:41 | 53.19596 | 22.57360 | 32010 ft | 510 kts | 188° |
| 2026-05-04 21:42 | 53.12675 | 22.54821 | 32009 ft | 510 kts | 188° |
| 2026-05-04 21:42 | 53.05743 | 22.52286 | 32011 ft | 510 kts | 188° |
| 2026-05-04 21:43 | 52.98855 | 22.49776 | 32011 ft | 510 kts | 188° |
| 2026-05-04 21:43 | 52.91933 | 22.47262 | 32010 ft | 509 kts | 188° |
| 2026-05-04 21:44 | 52.85013 | 22.44756 | 32011 ft | 509 kts | 188° |
| 2026-05-04 21:44 | 52.78095 | 22.42258 | 32022 ft | 507 kts | 188° |
| 2026-05-04 21:45 | 52.71206 | 22.39785 | 32031 ft | 507 kts | 188° |
| 2026-05-04 21:45 | 52.64324 | 22.37324 | 32039 ft | 506 kts | 188° |
| 2026-05-04 21:46 | 52.57446 | 22.34872 | 32038 ft | 505 kts | 188° |
| 2026-05-04 21:46 | 52.50571 | 22.32426 | 32034 ft | 505 kts | 187° |
| 2026-05-04 21:47 | 52.43718 | 22.29996 | 32038 ft | 504 kts | 187° |
| 2026-05-04 21:47 | 52.36861 | 22.27578 | 32040 ft | 503 kts | 187° |
| 2026-05-04 21:48 | 52.30021 | 22.25178 | 32036 ft | 503 kts | 187° |
| 2026-05-04 21:48 | 52.23184 | 22.22783 | 32038 ft | 502 kts | 187° |
| 2026-05-04 21:49 | 52.16341 | 22.20394 | 32043 ft | 502 kts | 187° |
| 2026-05-04 21:49 | 52.09503 | 22.18218 | 32042 ft | 500 kts | 185° |
| 2026-05-04 21:50 | 52.02658 | 22.16262 | 32038 ft | 499 kts | 185° |
| 2026-05-04 21:50 | 51.95818 | 22.14284 | 32036 ft | 499 kts | 185° |
| 2026-05-04 21:51 | 51.89024 | 22.12285 | 32038 ft | 499 kts | 185° |
| 2026-05-04 21:51 | 51.82186 | 22.10276 | 32037 ft | 499 kts | 185° |
| 2026-05-04 21:52 | 51.75342 | 22.08270 | 32039 ft | 500 kts | 185° |
| 2026-05-04 21:52 | 51.68505 | 22.06264 | 32038 ft | 500 kts | 185° |
| 2026-05-04 21:53 | 51.61658 | 22.04264 | 32042 ft | 500 kts | 185° |
| 2026-05-04 21:53 | 51.54809 | 22.02278 | 32051 ft | 500 kts | 185° |
| 2026-05-04 21:54 | 51.47953 | 22.00301 | 32044 ft | 500 kts | 185° |
| 2026-05-04 21:54 | 51.41117 | 21.98334 | 32045 ft | 499 kts | 185° |
| 2026-05-04 21:55 | 51.34281 | 21.96429 | 32052 ft | 498 kts | 185° |
| 2026-05-04 21:55 | 51.27446 | 21.94552 | 32044 ft | 498 kts | 185° |
| 2026-05-04 21:56 | 51.20623 | 21.92675 | 32054 ft | 498 kts | 185° |
| 2026-05-04 21:56 | 51.13797 | 21.90795 | 32057 ft | 497 kts | 185° |
| 2026-05-04 21:57 | 51.06992 | 21.88866 | 32055 ft | 497 kts | 185° |
| 2026-05-04 21:57 | 51.00184 | 21.86943 | 32057 ft | 496 kts | 185° |
| 2026-05-04 21:58 | 50.93391 | 21.85055 | 32052 ft | 495 kts | 185° |
| 2026-05-04 21:58 | 50.86613 | 21.83175 | 32066 ft | 494 kts | 185° |
| 2026-05-04 21:59 | 50.79847 | 21.81302 | 32064 ft | 494 kts | 185° |
| 2026-05-04 21:59 | 50.73063 | 21.79428 | 32066 ft | 494 kts | 185° |
| 2026-05-04 22:00 | 50.66294 | 21.77562 | 32068 ft | 494 kts | 185° |
| 2026-05-04 22:00 | 50.59513 | 21.76158 | 32054 ft | 486 kts | 174° |
| 2026-05-04 22:01 | 50.52776 | 21.76420 | 32064 ft | 483 kts | 172° |
| 2026-05-04 22:01 | 50.46100 | 21.76770 | 32067 ft | 483 kts | 172° |
| 2026-05-04 22:02 | 50.39332 | 21.77054 | 32075 ft | 483 kts | 173° |
| 2026-05-04 22:02 | 50.32613 | 21.77286 | 32075 ft | 484 kts | 173° |
| 2026-05-04 22:03 | 50.25879 | 21.77504 | 32073 ft | 484 kts | 173° |
| 2026-05-04 22:03 | 50.19156 | 21.77722 | 32075 ft | 484 kts | 173° |
| 2026-05-04 22:04 | 50.12466 | 21.77945 | 32078 ft | 484 kts | 173° |
| 2026-05-04 22:04 | 50.05723 | 21.78169 | 32080 ft | 485 kts | 173° |
| 2026-05-04 22:05 | 49.98992 | 21.78387 | 32079 ft | 484 kts | 173° |
| 2026-05-04 22:05 | 49.92252 | 21.78601 | 32070 ft | 484 kts | 173° |
| 2026-05-04 22:06 | 49.85524 | 21.78829 | 32071 ft | 483 kts | 173° |
| 2026-05-04 22:06 | 49.78796 | 21.79049 | 32075 ft | 484 kts | 173° |
| 2026-05-04 22:07 | 49.72066 | 21.79271 | 32073 ft | 483 kts | 173° |
| 2026-05-04 22:07 | 49.65339 | 21.79492 | 32087 ft | 483 kts | 173° |
| 2026-05-04 22:08 | 49.58622 | 21.79710 | 32084 ft | 483 kts | 173° |
| 2026-05-04 22:08 | 49.51899 | 21.79926 | 32084 ft | 483 kts | 173° |
| 2026-05-04 22:09 | 49.45170 | 21.80140 | 32079 ft | 483 kts | 173° |
| 2026-05-04 22:09 | 49.38447 | 21.80355 | 32085 ft | 483 kts | 174° |
| 2026-05-04 22:10 | 49.31736 | 21.80572 | 32083 ft | 483 kts | 174° |
| 2026-05-04 22:10 | 49.25012 | 21.80787 | 32091 ft | 483 kts | 174° |
| 2026-05-04 22:11 | 49.18305 | 21.81001 | 32120 ft | 482 kts | 174° |
| 2026-05-04 22:11 | 49.11582 | 21.81214 | 32092 ft | 483 kts | 174° |
| 2026-05-04 22:12 | 49.04872 | 21.81426 | 32098 ft | 482 kts | 175° |
| 2026-05-04 22:12 | 48.98175 | 21.81638 | 32117 ft | 481 kts | 175° |
| 2026-05-04 22:13 | 48.91481 | 21.81849 | 32102 ft | 481 kts | 175° |
| 2026-05-04 22:13 | 48.84804 | 21.82059 | 32099 ft | 480 kts | 175° |
| 2026-05-04 22:14 | 48.78175 | 21.82265 | 32103 ft | 479 kts | 176° |
| 2026-05-04 22:14 | 48.71514 | 21.82473 | 32095 ft | 479 kts | 176° |
| 2026-05-04 22:15 | 48.64821 | 21.82683 | 32098 ft | 478 kts | 176° |
| 2026-05-04 22:15 | 48.58206 | 21.82888 | 32097 ft | 478 kts | 176° |
| 2026-05-04 22:16 | 48.51514 | 21.83096 | 32105 ft | 477 kts | 176° |
| 2026-05-04 22:16 | 48.44885 | 21.83302 | 32096 ft | 477 kts | 177° |
| 2026-05-04 22:17 | 48.38290 | 21.83506 | 32114 ft | 477 kts | 177° |
| 2026-05-04 22:17 | 48.31657 | 21.83710 | 32099 ft | 477 kts | 177° |
| 2026-05-04 22:18 | 48.25227 | 21.85337 | 32128 ft | 468 kts | 150° |
| 2026-05-04 22:18 | 48.22549 | 21.88039 | 32094 ft | 463 kts | 135° |
| 2026-05-04 22:18 | 48.20384 | 21.91555 | 32091 ft | 458 kts | 122° |
| 2026-05-04 22:18 | 48.18871 | 21.95717 | 32127 ft | 453 kts | 110° |
| 2026-05-04 22:19 | 48.17664 | 22.00095 | 32092 ft | 454 kts | 109° |
| 2026-05-04 22:19 | 48.15355 | 22.08906 | 32093 ft | 455 kts | 109° |
| 2026-05-04 22:20 | 48.13020 | 22.17724 | 32097 ft | 456 kts | 109° |
| 2026-05-04 22:20 | 48.10629 | 22.26541 | 32092 ft | 458 kts | 110° |
| 2026-05-04 22:21 | 48.08206 | 22.35358 | 32092 ft | 458 kts | 110° |
| 2026-05-04 22:21 | 48.05776 | 22.44150 | 32092 ft | 458 kts | 110° |
| 2026-05-04 22:22 | 48.03339 | 22.52945 | 32091 ft | 457 kts | 110° |
| 2026-05-04 22:22 | 48.00901 | 22.61712 | 32082 ft | 457 kts | 110° |
| 2026-05-04 22:23 | 47.98460 | 22.70461 | 32077 ft | 456 kts | 110° |
| 2026-05-04 22:23 | 47.96008 | 22.79123 | 32075 ft | 456 kts | 110° |
| 2026-05-04 22:24 | 47.93564 | 22.87867 | 32084 ft | 457 kts | 110° |
| 2026-05-04 22:24 | 47.91509 | 22.95190 | 32079 ft | 458 kts | 111° |
| 2026-05-04 22:25 | 47.89031 | 23.03967 | 32076 ft | 460 kts | 111° |
| 2026-05-04 22:25 | 47.86540 | 23.12741 | 32074 ft | 461 kts | 111° |
| 2026-05-04 22:26 | 47.84031 | 23.21542 | 32075 ft | 462 kts | 111° |
| 2026-05-04 22:26 | 47.81528 | 23.30294 | 32080 ft | 463 kts | 111° |
| 2026-05-04 22:27 | 47.78998 | 23.39106 | 32074 ft | 463 kts | 111° |
| 2026-05-04 22:27 | 47.76460 | 23.47912 | 32071 ft | 463 kts | 111° |
| 2026-05-04 22:28 | 47.73919 | 23.56695 | 32079 ft | 462 kts | 111° |
| 2026-05-04 22:28 | 47.71374 | 23.65468 | 32068 ft | 462 kts | 111° |
| 2026-05-04 22:29 | 47.68829 | 23.74209 | 32074 ft | 461 kts | 111° |
| 2026-05-04 22:29 | 47.66279 | 23.82934 | 32078 ft | 460 kts | 111° |
| 2026-05-04 22:30 | 47.63725 | 23.91637 | 32070 ft | 460 kts | 111° |
| 2026-05-04 22:30 | 47.61167 | 24.00325 | 32073 ft | 460 kts | 111° |
| 2026-05-04 22:31 | 47.58605 | 24.09000 | 32073 ft | 459 kts | 111° |
| 2026-05-04 22:31 | 47.56038 | 24.17657 | 32079 ft | 459 kts | 111° |
| 2026-05-04 22:32 | 47.53461 | 24.26321 | 32064 ft | 460 kts | 112° |
| 2026-05-04 22:32 | 47.50850 | 24.34971 | 32076 ft | 460 kts | 112° |
| 2026-05-04 22:33 | 47.48269 | 24.43634 | 32067 ft | 461 kts | 112° |
| 2026-05-04 22:33 | 47.45674 | 24.52308 | 32061 ft | 462 kts | 112° |
| 2026-05-04 22:34 | 47.43056 | 24.60995 | 32058 ft | 463 kts | 112° |
| 2026-05-04 22:34 | 47.40426 | 24.69680 | 32059 ft | 464 kts | 112° |
| 2026-05-04 22:35 | 47.37789 | 24.78372 | 32057 ft | 466 kts | 112° |
| 2026-05-04 22:35 | 47.35137 | 24.87099 | 32055 ft | 466 kts | 112° |
| 2026-05-04 22:36 | 47.32459 | 24.95818 | 32055 ft | 467 kts | 112° |
| 2026-05-04 22:36 | 47.29776 | 25.04562 | 32051 ft | 469 kts | 112° |
| 2026-05-04 22:37 | 47.27339 | 25.13441 | 32041 ft | 468 kts | 103° |
| 2026-05-04 22:37 | 47.26535 | 25.22867 | 32059 ft | 464 kts | 90° |
| 2026-05-04 22:38 | 47.26345 | 25.32372 | 32040 ft | 464 kts | 90° |
| 2026-05-04 22:38 | 47.26135 | 25.41865 | 32040 ft | 464 kts | 90° |
| 2026-05-04 22:39 | 47.25884 | 25.51288 | 32047 ft | 463 kts | 90° |
| 2026-05-04 22:39 | 47.25608 | 25.60816 | 32043 ft | 463 kts | 90° |
| 2026-05-04 22:40 | 47.25323 | 25.70302 | 32038 ft | 463 kts | 90° |
| 2026-05-04 22:40 | 47.25032 | 25.79765 | 32034 ft | 463 kts | 90° |
| 2026-05-04 22:41 | 47.24735 | 25.89174 | 32039 ft | 462 kts | 91° |
| 2026-05-04 22:41 | 47.24429 | 25.98621 | 32038 ft | 462 kts | 91° |
| 2026-05-04 22:42 | 47.24118 | 26.08053 | 32032 ft | 462 kts | 91° |
| 2026-05-04 22:42 | 47.23796 | 26.17498 | 32035 ft | 462 kts | 91° |
| 2026-05-04 22:43 | 47.23595 | 26.23258 | 32038 ft | 462 kts | 91° |
| 2026-05-04 22:43 | 47.23263 | 26.32690 | 32034 ft | 462 kts | 91° |
| 2026-05-04 22:44 | 47.22921 | 26.42157 | 32038 ft | 465 kts | 91° |
| 2026-05-04 22:44 | 47.22573 | 26.51561 | 31627 ft | 452 kts | 91° |
| 2026-05-04 22:44 | 47.22400 | 26.56158 | 31043 ft | 451 kts | 91° |
| 2026-05-04 22:45 | 47.22225 | 26.60774 | 30227 ft | 454 kts | 91° |
| 2026-05-04 22:45 | 47.21864 | 26.70152 | 28412 ft | 463 kts | 91° |
| 2026-05-04 22:45 | 47.21679 | 26.74889 | 27466 ft | 465 kts | 91° |
| 2026-05-04 22:46 | 47.21489 | 26.79659 | 26513 ft | 468 kts | 91° |
| 2026-05-04 22:46 | 47.21297 | 26.84453 | 25529 ft | 470 kts | 91° |
| 2026-05-04 22:46 | 47.21103 | 26.89239 | 24764 ft | 467 kts | 91° |
| 2026-05-04 22:46 | 47.20909 | 26.93946 | 24172 ft | 459 kts | 91° |
| 2026-05-04 22:47 | 47.20715 | 26.98618 | 23563 ft | 453 kts | 91° |
| 2026-05-04 22:47 | 47.20523 | 27.03211 | 22876 ft | 448 kts | 91° |
| 2026-05-04 22:47 | 47.20331 | 27.07761 | 22167 ft | 444 kts | 91° |
| 2026-05-04 22:47 | 47.20141 | 27.12221 | 21465 ft | 441 kts | 91° |
| 2026-05-04 22:48 | 47.19948 | 27.16705 | 20794 ft | 436 kts | 91° |
| 2026-05-04 22:48 | 47.19757 | 27.21119 | 20140 ft | 432 kts | 91° |
| 2026-05-04 22:48 | 47.19566 | 27.25511 | 19476 ft | 428 kts | 91° |
| 2026-05-04 22:48 | 47.19375 | 27.29852 | 18812 ft | 424 kts | 91° |
| 2026-05-04 22:49 | 47.19184 | 27.34161 | 18160 ft | 420 kts | 91° |
| 2026-05-04 22:49 | 47.18994 | 27.38415 | 17526 ft | 416 kts | 91° |
| 2026-05-04 22:49 | 47.18804 | 27.42634 | 16870 ft | 412 kts | 91° |
| 2026-05-04 22:49 | 47.18613 | 27.46829 | 16198 ft | 409 kts | 91° |
| 2026-05-04 22:50 | 47.18417 | 27.50983 | 15523 ft | 406 kts | 91° |
| 2026-05-04 22:50 | 47.18231 | 27.55113 | 14866 ft | 403 kts | 91° |
| 2026-05-04 22:50 | 47.18046 | 27.59212 | 14222 ft | 400 kts | 92° |
| 2026-05-04 22:50 | 47.17854 | 27.63268 | 13580 ft | 398 kts | 92° |
| 2026-05-04 22:51 | 47.17652 | 27.67313 | 12934 ft | 395 kts | 92° |
| 2026-05-04 22:51 | 47.17471 | 27.71326 | 12298 ft | 392 kts | 91° |
| 2026-05-04 22:51 | 47.17288 | 27.75307 | 11745 ft | 389 kts | 92° |
| 2026-05-04 22:51 | 47.17097 | 27.79193 | 11561 ft | 374 kts | 92° |
| 2026-05-04 22:52 | 47.16910 | 27.82935 | 11447 ft | 359 kts | 92° |
| 2026-05-04 22:52 | 47.16546 | 27.86497 | 11318 ft | 349 kts | 106° |
| 2026-05-04 22:52 | 47.15687 | 27.89755 | 11254 ft | 336 kts | 111° |
| 2026-05-04 22:52 | 47.14793 | 27.92870 | 11167 ft | 325 kts | 111° |
| 2026-05-04 22:53 | 47.13927 | 27.95870 | 11086 ft | 313 kts | 111° |
| 2026-05-04 22:53 | 47.13101 | 27.98773 | 11010 ft | 303 kts | 111° |
| 2026-05-04 22:53 | 47.12306 | 28.01592 | 10916 ft | 294 kts | 111° |
| 2026-05-04 22:53 | 47.11538 | 28.04338 | 10752 ft | 289 kts | 110° |
| 2026-05-04 22:54 | 47.10781 | 28.07060 | 10465 ft | 288 kts | 110° |
| 2026-05-04 22:54 | 47.10026 | 28.09777 | 10135 ft | 288 kts | 110° |
| 2026-05-04 22:54 | 47.09270 | 28.12503 | 9810 ft | 288 kts | 110° |
| 2026-05-04 22:54 | 47.08515 | 28.15221 | 9515 ft | 287 kts | 110° |
| 2026-05-04 22:55 | 47.07761 | 28.17932 | 9225 ft | 286 kts | 111° |
| 2026-05-04 22:55 | 47.07010 | 28.20631 | 8942 ft | 286 kts | 111° |
| 2026-05-04 22:55 | 47.06259 | 28.23329 | 8651 ft | 285 kts | 111° |
| 2026-05-04 22:55 | 47.05512 | 28.26012 | 8372 ft | 283 kts | 111° |
| 2026-05-04 22:56 | 47.04769 | 28.28680 | 8088 ft | 282 kts | 111° |
| 2026-05-04 22:56 | 47.04028 | 28.31336 | 7849 ft | 280 kts | 111° |
| 2026-05-04 22:56 | 47.03293 | 28.33966 | 7585 ft | 279 kts | 111° |
| 2026-05-04 22:56 | 47.02556 | 28.36595 | 7297 ft | 278 kts | 111° |
| 2026-05-04 22:57 | 47.01809 | 28.39187 | 7022 ft | 277 kts | 115° |
| 2026-05-04 22:57 | 47.00830 | 28.41628 | 6747 ft | 276 kts | 122° |
| 2026-05-04 22:57 | 46.99773 | 28.43970 | 6483 ft | 275 kts | 123° |
| 2026-05-04 22:57 | 46.98744 | 28.46270 | 6231 ft | 272 kts | 122° |
| 2026-05-04 22:58 | 46.97718 | 28.48610 | 5931 ft | 272 kts | 122° |
| 2026-05-04 22:58 | 46.96706 | 28.50941 | 5667 ft | 271 kts | 121° |
| 2026-05-04 22:58 | 46.95628 | 28.53150 | 5512 ft | 265 kts | 136° |
| 2026-05-04 22:58 | 46.94075 | 28.54498 | 5315 ft | 258 kts | 166° |
| 2026-05-04 22:59 | 46.92407 | 28.55331 | 5153 ft | 253 kts | 147° |
| 2026-05-04 22:59 | 46.91289 | 28.57237 | 4879 ft | 251 kts | 110° |
| 2026-05-04 22:59 | 46.91161 | 28.59708 | 4553 ft | 242 kts | 72° |
| 2026-05-04 22:59 | 46.91652 | 28.62017 | 4205 ft | 234 kts | 71° |
| 2026-05-04 23:00 | 46.91997 | 28.64305 | 3895 ft | 227 kts | 78° |
| 2026-05-04 23:00 | 46.92216 | 28.66542 | 3620 ft | 217 kts | 82° |
| 2026-05-04 23:00 | 46.92315 | 28.68714 | 3323 ft | 211 kts | 86° |
| 2026-05-04 23:00 | 46.92358 | 28.70822 | 3063 ft | 203 kts | 86° |
| 2026-05-04 23:01 | 46.92393 | 28.72833 | 2790 ft | 192 kts | 86° |
| 2026-05-04 23:01 | 46.92425 | 28.74713 | 2527 ft | 178 kts | 86° |
| 2026-05-04 23:01 | 46.92459 | 28.76449 | 2362 ft | 165 kts | 86° |
| 2026-05-04 23:01 | 46.92488 | 28.78128 | 2106 ft | 161 kts | 88° |
| 2026-05-04 23:02 | 46.92533 | 28.79758 | 1858 ft | 160 kts | 86° |
| 2026-05-04 23:02 | 46.92568 | 28.81362 | 1655 ft | 159 kts | 87° |
| 2026-05-04 23:02 | 46.92585 | 28.82987 | 1463 ft | 158 kts | 87° |
| 2026-05-04 23:02 | 46.92613 | 28.84593 | 1258 ft | 158 kts | 87° |
| 2026-05-04 23:03 | 46.92648 | 28.86189 | 1041 ft | 158 kts | 87° |
| 2026-05-04 23:03 | 46.92673 | 28.87785 | 848 ft | 156 kts | 87° |
| 2026-05-04 23:03 | 46.92707 | 28.89376 | 633 ft | 157 kts | 87° |
| 2026-05-04 23:03 | 46.92739 | 28.90969 | 417 ft | 157 kts | 88° |
| 2026-05-04 23:04 | 46.92765 | 28.92198 | 407 ft | 72 kts | 89° |
| 2026-05-04 23:04 | 46.92772 | 28.92698 | 407 ft | 44 kts | 88° |
| 2026-05-04 23:04 | 46.92780 | 28.93108 | 407 ft | 27 kts | 88° |
| 2026-05-04 23:04 | 46.92785 | 28.93339 | 407 ft | 8 kts | 88° |
| 2026-05-04 23:05 | 46.92795 | 28.93388 | 403 ft | 8 kts | 56° |